sensor_id;sensor_type;location;lat;lon;timestamp;pressure;altitude;pressure_sealevel;temperature
80537;BMP280;69867;47.074;15.404;2023-07-13T00:01:56;97190.44;;;22.52
80537;BMP280;69867;47.074;15.404;2023-07-13T00:04:23;97181.28;;;22.45
80537;BMP280;69867;47.074;15.404;2023-07-13T00:06:49;97181.63;;;22.40
80537;BMP280;69867;47.074;15.404;2023-07-13T00:09:15;97172.13;;;22.38
80537;BMP280;69867;47.074;15.404;2023-07-13T00:11:41;97176.56;;;22.37
80537;BMP280;69867;47.074;15.404;2023-07-13T00:14:06;97176.81;;;22.34
80537;BMP280;69867;47.074;15.404;2023-07-13T00:16:34;97168.75;;;22.35
80537;BMP280;69867;47.074;15.404;2023-07-13T00:19:00;97165.25;;;22.35
80537;BMP280;69867;47.074;15.404;2023-07-13T00:21:26;97152.50;;;22.29
80537;BMP280;69867;47.074;15.404;2023-07-13T00:23:51;97134.69;;;22.20
80537;BMP280;69867;47.074;15.404;2023-07-13T00:26:17;97132.28;;;22.17
80537;BMP280;69867;47.074;15.404;2023-07-13T00:28:42;97132.03;;;22.20
80537;BMP280;69867;47.074;15.404;2023-07-13T00:31:09;97143.47;;;22.20
80537;BMP280;69867;47.074;15.404;2023-07-13T00:33:35;97132.88;;;22.20
80537;BMP280;69867;47.074;15.404;2023-07-13T00:36:00;97116.63;;;22.14
80537;BMP280;69867;47.074;15.404;2023-07-13T00:38:26;97104.56;;;22.10
80537;BMP280;69867;47.074;15.404;2023-07-13T00:40:51;97092.44;;;22.07
80537;BMP280;69867;47.074;15.404;2023-07-13T00:43:19;97083.88;;;22.03
80537;BMP280;69867;47.074;15.404;2023-07-13T00:48:14;97110.09;;;22.07
80537;BMP280;69867;47.074;15.404;2023-07-13T00:50:41;97110.22;;;22.05
80537;BMP280;69867;47.074;15.404;2023-07-13T00:53:07;97092.53;;;22.06
80537;BMP280;69867;47.074;15.404;2023-07-13T00:55:33;97070.94;;;22.12
80537;BMP280;69867;47.074;15.404;2023-07-13T00:57:59;97073.22;;;22.16
80537;BMP280;69867;47.074;15.404;2023-07-13T01:00:25;97069.59;;;22.17
80537;BMP280;69867;47.074;15.404;2023-07-13T01:02:50;97075.75;;;22.18
80537;BMP280;69867;47.074;15.404;2023-07-13T01:05:19;97079.00;;;22.21
80537;BMP280;69867;47.074;15.404;2023-07-13T01:07:45;97067.69;;;22.19
80537;BMP280;69867;47.074;15.404;2023-07-13T01:10:35;97053.00;;;22.15
80537;BMP280;69867;47.074;15.404;2023-07-13T01:13:01;97049.63;;;22.13
80537;BMP280;69867;47.074;15.404;2023-07-13T01:15:42;97081.63;;;22.32
80537;BMP280;69867;47.074;15.404;2023-07-13T01:18:11;97122.56;;;22.40
80537;BMP280;69867;47.074;15.404;2023-07-13T01:20:38;97157.09;;;22.38
80537;BMP280;69867;47.074;15.404;2023-07-13T01:23:08;97173.69;;;22.29
80537;BMP280;69867;47.074;15.404;2023-07-13T01:25:35;97157.53;;;22.21
80537;BMP280;69867;47.074;15.404;2023-07-13T01:28:03;97144.06;;;22.24
80537;BMP280;69867;47.074;15.404;2023-07-13T01:30:29;97154.41;;;22.16
80537;BMP280;69867;47.074;15.404;2023-07-13T01:32:54;97161.78;;;21.99
80537;BMP280;69867;47.074;15.404;2023-07-13T01:35:20;97180.84;;;21.81
80537;BMP280;69867;47.074;15.404;2023-07-13T01:37:45;97185.25;;;21.69
80537;BMP280;69867;47.074;15.404;2023-07-13T01:40:11;97215.34;;;21.31
80537;BMP280;69867;47.074;15.404;2023-07-13T01:42:37;97226.38;;;21.00
80537;BMP280;69867;47.074;15.404;2023-07-13T01:45:03;97223.34;;;20.81
80537;BMP280;69867;47.074;15.404;2023-07-13T01:47:29;97259.75;;;20.63
80537;BMP280;69867;47.074;15.404;2023-07-13T01:49:54;97305.06;;;20.44
80537;BMP280;69867;47.074;15.404;2023-07-13T01:52:20;97356.09;;;20.30
80537;BMP280;69867;47.074;15.404;2023-07-13T01:54:45;97390.69;;;20.26
80537;BMP280;69867;47.074;15.404;2023-07-13T01:57:10;97451.13;;;20.16
80537;BMP280;69867;47.074;15.404;2023-07-13T01:59:36;97493.44;;;20.00
80537;BMP280;69867;47.074;15.404;2023-07-13T02:02:01;97523.78;;;19.79
80537;BMP280;69867;47.074;15.404;2023-07-13T02:04:26;97529.81;;;19.67
80537;BMP280;69867;47.074;15.404;2023-07-13T02:06:51;97551.94;;;19.64
80537;BMP280;69867;47.074;15.404;2023-07-13T02:09:17;97570.41;;;19.48
80537;BMP280;69867;47.074;15.404;2023-07-13T02:11:42;97592.78;;;19.41
80537;BMP280;69867;47.074;15.404;2023-07-13T02:14:08;97592.28;;;19.35
80537;BMP280;69867;47.074;15.404;2023-07-13T02:16:33;97598.13;;;19.40
80537;BMP280;69867;47.074;15.404;2023-07-13T02:18:58;97576.00;;;19.28
80537;BMP280;69867;47.074;15.404;2023-07-13T02:21:24;97563.16;;;19.22
80537;BMP280;69867;47.074;15.404;2023-07-13T02:23:49;97539.66;;;19.19
80537;BMP280;69867;47.074;15.404;2023-07-13T02:26:15;97518.00;;;19.14
80537;BMP280;69867;47.074;15.404;2023-07-13T02:28:41;97487.69;;;19.07
80537;BMP280;69867;47.074;15.404;2023-07-13T02:31:12;97489.16;;;18.97
80537;BMP280;69867;47.074;15.404;2023-07-13T02:33:38;97461.13;;;18.96
80537;BMP280;69867;47.074;15.404;2023-07-13T02:36:04;97440.63;;;19.01
80537;BMP280;69867;47.074;15.404;2023-07-13T02:38:30;97390.69;;;18.85
80537;BMP280;69867;47.074;15.404;2023-07-13T02:40:55;97313.66;;;18.67
80537;BMP280;69867;47.074;15.404;2023-07-13T02:43:21;97303.06;;;18.53
80537;BMP280;69867;47.074;15.404;2023-07-13T02:45:47;97289.72;;;18.42
80537;BMP280;69867;47.074;15.404;2023-07-13T02:48:14;97283.13;;;18.35
80537;BMP280;69867;47.074;15.404;2023-07-13T02:50:39;97291.56;;;18.26
80537;BMP280;69867;47.074;15.404;2023-07-13T02:53:05;97287.41;;;18.21
80537;BMP280;69867;47.074;15.404;2023-07-13T02:55:30;97308.97;;;18.12
80537;BMP280;69867;47.074;15.404;2023-07-13T02:57:55;97328.22;;;18.13
80537;BMP280;69867;47.074;15.404;2023-07-13T03:00:21;97338.72;;;18.13
80537;BMP280;69867;47.074;15.404;2023-07-13T03:02:46;97362.22;;;18.32
80537;BMP280;69867;47.074;15.404;2023-07-13T03:05:11;97387.28;;;18.53
80537;BMP280;69867;47.074;15.404;2023-07-13T03:07:37;97427.09;;;18.63
80537;BMP280;69867;47.074;15.404;2023-07-13T03:10:02;97431.66;;;18.59
80537;BMP280;69867;47.074;15.404;2023-07-13T03:12:27;97497.31;;;18.62
80537;BMP280;69867;47.074;15.404;2023-07-13T03:14:53;97483.38;;;18.60
80537;BMP280;69867;47.074;15.404;2023-07-13T03:17:18;97451.47;;;18.66
80537;BMP280;69867;47.074;15.404;2023-07-13T03:19:43;97491.97;;;18.64
80537;BMP280;69867;47.074;15.404;2023-07-13T03:22:09;97475.31;;;18.63
80537;BMP280;69867;47.074;15.404;2023-07-13T03:24:34;97453.16;;;18.67
80537;BMP280;69867;47.074;15.404;2023-07-13T03:27:04;97439.22;;;18.65
80537;BMP280;69867;47.074;15.404;2023-07-13T03:29:30;97400.00;;;18.61
80537;BMP280;69867;47.074;15.404;2023-07-13T03:31:55;97358.75;;;18.61
80537;BMP280;69867;47.074;15.404;2023-07-13T03:34:20;97298.22;;;18.61
80537;BMP280;69867;47.074;15.404;2023-07-13T03:36:46;97234.13;;;18.62
80537;BMP280;69867;47.074;15.404;2023-07-13T03:39:11;97169.00;;;18.66
80537;BMP280;69867;47.074;15.404;2023-07-13T03:41:36;97120.69;;;18.67
80537;BMP280;69867;47.074;15.404;2023-07-13T03:44:02;97092.19;;;18.59
80537;BMP280;69867;47.074;15.404;2023-07-13T03:46:27;97086.78;;;18.62
80537;BMP280;69867;47.074;15.404;2023-07-13T03:48:53;97077.00;;;18.64
80537;BMP280;69867;47.074;15.404;2023-07-13T03:51:19;97095.31;;;18.66
80537;BMP280;69867;47.074;15.404;2023-07-13T03:53:46;97123.97;;;18.70
80537;BMP280;69867;47.074;15.404;2023-07-13T03:56:12;97163.44;;;18.70
80537;BMP280;69867;47.074;15.404;2023-07-13T03:58:39;97171.44;;;18.69
80537;BMP280;69867;47.074;15.404;2023-07-13T04:01:07;97191.94;;;18.64
80537;BMP280;69867;47.074;15.404;2023-07-13T04:03:34;97219.19;;;18.63
80537;BMP280;69867;47.074;15.404;2023-07-13T04:06:03;97242.78;;;18.64
80537;BMP280;69867;47.074;15.404;2023-07-13T04:08:33;97259.03;;;18.71
80537;BMP280;69867;47.074;15.404;2023-07-13T04:10:59;97272.69;;;18.77
80537;BMP280;69867;47.074;15.404;2023-07-13T04:13:25;97274.00;;;18.84
80537;BMP280;69867;47.074;15.404;2023-07-13T04:15:51;97285.09;;;18.90
80537;BMP280;69867;47.074;15.404;2023-07-13T04:18:17;97300.69;;;18.93
80537;BMP280;69867;47.074;15.404;2023-07-13T04:20:42;97298.63;;;18.98
80537;BMP280;69867;47.074;15.404;2023-07-13T04:23:08;97300.22;;;19.00
80537;BMP280;69867;47.074;15.404;2023-07-13T04:25:34;97293.81;;;19.04
80537;BMP280;69867;47.074;15.404;2023-07-13T04:27:59;97300.59;;;19.08
80537;BMP280;69867;47.074;15.404;2023-07-13T04:30:24;97311.50;;;19.16
80537;BMP280;69867;47.074;15.404;2023-07-13T04:32:51;97310.84;;;19.27
80537;BMP280;69867;47.074;15.404;2023-07-13T04:35:17;97299.91;;;19.33
80537;BMP280;69867;47.074;15.404;2023-07-13T04:37:43;97303.84;;;19.40
80537;BMP280;69867;47.074;15.404;2023-07-13T04:40:08;97312.13;;;19.48
80537;BMP280;69867;47.074;15.404;2023-07-13T04:42:34;97328.16;;;19.60
80537;BMP280;69867;47.074;15.404;2023-07-13T04:44:59;97336.31;;;19.69
80537;BMP280;69867;47.074;15.404;2023-07-13T04:47:24;97344.28;;;19.82
80537;BMP280;69867;47.074;15.404;2023-07-13T04:49:50;97337.72;;;20.02
80537;BMP280;69867;47.074;15.404;2023-07-13T04:52:15;97343.19;;;20.26
80537;BMP280;69867;47.074;15.404;2023-07-13T04:54:40;97332.75;;;20.64
80537;BMP280;69867;47.074;15.404;2023-07-13T04:57:06;97326.66;;;21.14
80537;BMP280;69867;47.074;15.404;2023-07-13T04:59:32;97315.34;;;21.74
80537;BMP280;69867;47.074;15.404;2023-07-13T05:01:57;97304.56;;;22.25
80537;BMP280;69867;47.074;15.404;2023-07-13T05:04:23;97309.75;;;22.26
80537;BMP280;69867;47.074;15.404;2023-07-13T05:06:48;97307.56;;;22.55
80537;BMP280;69867;47.074;15.404;2023-07-13T05:09:13;97311.53;;;23.41
80537;BMP280;69867;47.074;15.404;2023-07-13T05:11:39;97310.03;;;24.24
80537;BMP280;69867;47.074;15.404;2023-07-13T05:14:04;97302.88;;;25.19
80537;BMP280;69867;47.074;15.404;2023-07-13T05:16:29;97296.22;;;25.65
80537;BMP280;69867;47.074;15.404;2023-07-13T05:18:55;97294.13;;;25.78
80537;BMP280;69867;47.074;15.404;2023-07-13T05:21:20;97298.88;;;26.34
80537;BMP280;69867;47.074;15.404;2023-07-13T05:23:47;97303.34;;;26.43
80537;BMP280;69867;47.074;15.404;2023-07-13T05:26:12;97299.06;;;26.89
80537;BMP280;69867;47.074;15.404;2023-07-13T05:28:38;97297.34;;;27.07
80537;BMP280;69867;47.074;15.404;2023-07-13T05:31:04;97290.56;;;28.05
80537;BMP280;69867;47.074;15.404;2023-07-13T05:33:30;97274.31;;;28.52
80537;BMP280;69867;47.074;15.404;2023-07-13T05:35:55;97270.31;;;29.59
80537;BMP280;69867;47.074;15.404;2023-07-13T05:38:20;97262.47;;;30.33
80537;BMP280;69867;47.074;15.404;2023-07-13T05:40:46;97270.19;;;30.28
80537;BMP280;69867;47.074;15.404;2023-07-13T05:43:12;97264.03;;;29.85
80537;BMP280;69867;47.074;15.404;2023-07-13T05:45:38;97264.03;;;29.85
80537;BMP280;69867;47.074;15.404;2023-07-13T05:48:04;97266.81;;;30.09
80537;BMP280;69867;47.074;15.404;2023-07-13T05:50:29;97269.53;;;30.25
80537;BMP280;69867;47.074;15.404;2023-07-13T05:52:55;97271.97;;;29.52
80537;BMP280;69867;47.074;15.404;2023-07-13T05:55:20;97275.03;;;30.08
80537;BMP280;69867;47.074;15.404;2023-07-13T05:57:46;97274.22;;;30.56
80537;BMP280;69867;47.074;15.404;2023-07-13T06:00:11;97268.28;;;31.09
80537;BMP280;69867;47.074;15.404;2023-07-13T06:02:37;97269.31;;;31.64
80537;BMP280;69867;47.074;15.404;2023-07-13T06:05:03;97279.00;;;32.35
80537;BMP280;69867;47.074;15.404;2023-07-13T06:07:28;97268.84;;;32.68
80537;BMP280;69867;47.074;15.404;2023-07-13T06:09:53;97265.22;;;33.28
80537;BMP280;69867;47.074;15.404;2023-07-13T06:12:19;97254.03;;;33.75
80537;BMP280;69867;47.074;15.404;2023-07-13T06:14:44;97254.72;;;33.18
80537;BMP280;69867;47.074;15.404;2023-07-13T06:17:09;97260.84;;;33.12
80537;BMP280;69867;47.074;15.404;2023-07-13T06:19:35;97273.78;;;33.31
80537;BMP280;69867;47.074;15.404;2023-07-13T06:22:00;97282.50;;;32.12
80537;BMP280;69867;47.074;15.404;2023-07-13T06:24:26;97286.34;;;32.41
80537;BMP280;69867;47.074;15.404;2023-07-13T06:26:52;97297.84;;;31.65
80537;BMP280;69867;47.074;15.404;2023-07-13T06:29:17;97281.19;;;31.77
80537;BMP280;69867;47.074;15.404;2023-07-13T06:31:42;97286.25;;;31.09
80537;BMP280;69867;47.074;15.404;2023-07-13T06:34:08;97287.16;;;30.61
80537;BMP280;69867;47.074;15.404;2023-07-13T06:36:33;97290.09;;;29.33
80537;BMP280;69867;47.074;15.404;2023-07-13T06:38:58;97295.66;;;27.81
80537;BMP280;69867;47.074;15.404;2023-07-13T06:41:24;97299.53;;;27.31
80537;BMP280;69867;47.074;15.404;2023-07-13T06:43:49;97305.13;;;26.82
80537;BMP280;69867;47.074;15.404;2023-07-13T06:46:14;97313.28;;;26.32
80537;BMP280;69867;47.074;15.404;2023-07-13T06:48:40;97308.53;;;26.55
80537;BMP280;69867;47.074;15.404;2023-07-13T06:51:05;97307.78;;;26.82
80537;BMP280;69867;47.074;15.404;2023-07-13T06:53:30;97318.75;;;26.69
80537;BMP280;69867;47.074;15.404;2023-07-13T06:55:56;97319.31;;;26.24
80537;BMP280;69867;47.074;15.404;2023-07-13T06:58:22;97324.72;;;25.94
80537;BMP280;69867;47.074;15.404;2023-07-13T07:00:50;97339.56;;;25.56
80537;BMP280;69867;47.074;15.404;2023-07-13T07:03:16;97331.34;;;25.29
80537;BMP280;69867;47.074;15.404;2023-07-13T07:05:41;97330.34;;;24.99
80537;BMP280;69867;47.074;15.404;2023-07-13T07:08:07;97325.28;;;24.96
80537;BMP280;69867;47.074;15.404;2023-07-13T07:10:33;97323.09;;;25.01
80537;BMP280;69867;47.074;15.404;2023-07-13T07:12:58;97333.78;;;25.11
80537;BMP280;69867;47.074;15.404;2023-07-13T07:15:24;97327.16;;;25.05
80537;BMP280;69867;47.074;15.404;2023-07-13T07:17:50;97343.84;;;25.07
80537;BMP280;69867;47.074;15.404;2023-07-13T07:20:15;97334.88;;;25.08
80537;BMP280;69867;47.074;15.404;2023-07-13T07:22:40;97342.34;;;25.14
80537;BMP280;69867;47.074;15.404;2023-07-13T07:25:06;97324.91;;;25.31
80537;BMP280;69867;47.074;15.404;2023-07-13T07:27:32;97331.25;;;25.40
80537;BMP280;69867;47.074;15.404;2023-07-13T07:29:57;97332.00;;;25.51
80537;BMP280;69867;47.074;15.404;2023-07-13T07:32:23;97328.38;;;25.62
80537;BMP280;69867;47.074;15.404;2023-07-13T07:34:48;97312.91;;;25.37
80537;BMP280;69867;47.074;15.404;2023-07-13T07:37:14;97312.34;;;25.43
80537;BMP280;69867;47.074;15.404;2023-07-13T07:39:39;97306.59;;;25.38
80537;BMP280;69867;47.074;15.404;2023-07-13T07:42:05;97309.81;;;25.32
80537;BMP280;69867;47.074;15.404;2023-07-13T07:44:32;97308.13;;;25.31
80537;BMP280;69867;47.074;15.404;2023-07-13T07:46:57;97307.47;;;25.48
80537;BMP280;69867;47.074;15.404;2023-07-13T07:49:23;97313.47;;;25.40
80537;BMP280;69867;47.074;15.404;2023-07-13T07:51:48;97301.22;;;25.18
80537;BMP280;69867;47.074;15.404;2023-07-13T07:54:14;97305.28;;;25.23
80537;BMP280;69867;47.074;15.404;2023-07-13T07:56:39;97305.00;;;25.26
80537;BMP280;69867;47.074;15.404;2023-07-13T07:59:05;97306.28;;;25.31
80537;BMP280;69867;47.074;15.404;2023-07-13T08:01:30;97314.19;;;25.42
80537;BMP280;69867;47.074;15.404;2023-07-13T08:03:55;97317.97;;;25.49
80537;BMP280;69867;47.074;15.404;2023-07-13T08:06:21;97313.63;;;25.48
80537;BMP280;69867;47.074;15.404;2023-07-13T08:08:46;97318.00;;;25.59
80537;BMP280;69867;47.074;15.404;2023-07-13T08:11:11;97313.31;;;25.72
80537;BMP280;69867;47.074;15.404;2023-07-13T08:13:37;97315.59;;;25.87
80537;BMP280;69867;47.074;15.404;2023-07-13T08:16:05;97318.81;;;25.80
80537;BMP280;69867;47.074;15.404;2023-07-13T08:18:31;97320.09;;;25.96
80537;BMP280;69867;47.074;15.404;2023-07-13T08:20:56;97327.81;;;25.99
80537;BMP280;69867;47.074;15.404;2023-07-13T08:23:22;97318.44;;;26.04
80537;BMP280;69867;47.074;15.404;2023-07-13T08:25:52;97317.63;;;26.23
80537;BMP280;69867;47.074;15.404;2023-07-13T08:28:19;97319.03;;;26.27
80537;BMP280;69867;47.074;15.404;2023-07-13T08:30:44;97319.03;;;26.27
80537;BMP280;69867;47.074;15.404;2023-07-13T08:33:10;97302.06;;;26.28
80537;BMP280;69867;47.074;15.404;2023-07-13T08:35:35;97299.56;;;26.36
80537;BMP280;69867;47.074;15.404;2023-07-13T08:38:00;97303.88;;;26.28
80537;BMP280;69867;47.074;15.404;2023-07-13T08:40:27;97309.34;;;26.17
80537;BMP280;69867;47.074;15.404;2023-07-13T08:42:58;97305.56;;;26.29
80537;BMP280;69867;47.074;15.404;2023-07-13T08:45:43;97297.19;;;26.43
80537;BMP280;69867;47.074;15.404;2023-07-13T08:48:13;97300.13;;;26.50
80537;BMP280;69867;47.074;15.404;2023-07-13T08:51:34;97309.66;;;26.42
80537;BMP280;69867;47.074;15.404;2023-07-13T08:53:42;97297.47;;;26.50
80537;BMP280;69867;47.074;15.404;2023-07-13T08:56:16;97305.41;;;26.78
80537;BMP280;69867;47.074;15.404;2023-07-13T08:58:43;97295.16;;;26.84
80537;BMP280;69867;47.074;15.404;2023-07-13T09:04:14;97287.28;;;27.01
80537;BMP280;69867;47.074;15.404;2023-07-13T09:06:55;97285.22;;;27.23
80537;BMP280;69867;47.074;15.404;2023-07-13T09:09:31;97278.44;;;27.38
80537;BMP280;69867;47.074;15.404;2023-07-13T09:15:05;97273.41;;;27.35
80537;BMP280;69867;47.074;15.404;2023-07-13T09:17:48;97289.22;;;27.46
80537;BMP280;69867;47.074;15.404;2023-07-13T09:20:26;97289.22;;;27.46
80537;BMP280;69867;47.074;15.404;2023-07-13T09:22:53;97284.97;;;27.53
80537;BMP280;69867;47.074;15.404;2023-07-13T09:25:29;97283.78;;;27.93
80537;BMP280;69867;47.074;15.404;2023-07-13T09:27:58;97295.22;;;28.03
80537;BMP280;69867;47.074;15.404;2023-07-13T09:30:32;97300.91;;;28.35
80537;BMP280;69867;47.074;15.404;2023-07-13T09:32:58;97290.66;;;28.84
80537;BMP280;69867;47.074;15.404;2023-07-13T09:35:26;97290.69;;;29.18
80537;BMP280;69867;47.074;15.404;2023-07-13T09:37:56;97290.91;;;29.59
80537;BMP280;69867;47.074;15.404;2023-07-13T09:40:28;97285.78;;;29.82
80537;BMP280;69867;47.074;15.404;2023-07-13T09:42:56;97270.84;;;30.05
80537;BMP280;69867;47.074;15.404;2023-07-13T09:45:27;97276.09;;;29.89
80537;BMP280;69867;47.074;15.404;2023-07-13T09:47:59;97279.50;;;29.91
80537;BMP280;69867;47.074;15.404;2023-07-13T09:50:25;97275.72;;;30.18
80537;BMP280;69867;47.074;15.404;2023-07-13T09:52:50;97278.22;;;30.19
80537;BMP280;69867;47.074;15.404;2023-07-13T09:57:53;97288.84;;;29.19
80537;BMP280;69867;47.074;15.404;2023-07-13T10:00:28;97287.06;;;29.27
80537;BMP280;69867;47.074;15.404;2023-07-13T10:05:42;97280.34;;;29.49
80537;BMP280;69867;47.074;15.404;2023-07-13T10:08:25;97277.03;;;29.63
80537;BMP280;69867;47.074;15.404;2023-07-13T10:11:00;97280.91;;;29.35
80537;BMP280;69867;47.074;15.404;2023-07-13T10:13:30;97283.50;;;29.45
80537;BMP280;69867;47.074;15.404;2023-07-13T10:15:57;97281.06;;;29.68
80537;BMP280;69867;47.074;15.404;2023-07-13T10:18:24;97274.25;;;29.81
80537;BMP280;69867;47.074;15.404;2023-07-13T10:20:54;97267.44;;;29.95
80537;BMP280;69867;47.074;15.404;2023-07-13T10:23:27;97264.66;;;30.13
80537;BMP280;69867;47.074;15.404;2023-07-13T10:25:54;97258.97;;;30.24
80537;BMP280;69867;47.074;15.404;2023-07-13T10:28:30;97257.44;;;30.54
80537;BMP280;69867;47.074;15.404;2023-07-13T10:30:59;97255.09;;;30.83
80537;BMP280;69867;47.074;15.404;2023-07-13T10:33:25;97254.53;;;31.04
80537;BMP280;69867;47.074;15.404;2023-07-13T10:35:54;97257.72;;;31.24
80537;BMP280;69867;47.074;15.404;2023-07-13T10:38:22;97259.91;;;31.04
80537;BMP280;69867;47.074;15.404;2023-07-13T10:41:03;97257.38;;;31.11
80537;BMP280;69867;47.074;15.404;2023-07-13T10:43:52;97256.72;;;31.25
80537;BMP280;69867;47.074;15.404;2023-07-13T10:46:21;97262.09;;;31.09
80537;BMP280;69867;47.074;15.404;2023-07-13T10:48:52;97256.72;;;31.17
80537;BMP280;69867;47.074;15.404;2023-07-13T10:51:19;97249.50;;;31.65
80537;BMP280;69867;47.074;15.404;2023-07-13T10:53:46;97251.34;;;31.72
80537;BMP280;69867;47.074;15.404;2023-07-13T10:56:24;97255.00;;;31.32
80537;BMP280;69867;47.074;15.404;2023-07-13T11:01:46;97257.69;;;31.32
80537;BMP280;69867;47.074;15.404;2023-07-13T11:04:13;97262.69;;;31.43
80537;BMP280;69867;47.074;15.404;2023-07-13T11:06:41;97241.34;;;31.50
80537;BMP280;69867;47.074;15.404;2023-07-13T11:11:47;97240.25;;;31.67
80537;BMP280;69867;47.074;15.404;2023-07-13T11:14:37;97237.44;;;31.61
80537;BMP280;69867;47.074;15.404;2023-07-13T11:19:51;97222.53;;;31.50
80537;BMP280;69867;47.074;15.404;2023-07-13T11:22:21;97227.25;;;31.48
80537;BMP280;69867;47.074;15.404;2023-07-13T11:25:02;97226.28;;;31.41
80537;BMP280;69867;47.074;15.404;2023-07-13T11:27:49;97227.75;;;31.51
80537;BMP280;69867;47.074;15.404;2023-07-13T11:36:19;97228.53;;;31.29
80537;BMP280;69867;47.074;15.404;2023-07-13T11:38:42;97228.19;;;31.16
80537;BMP280;69867;47.074;15.404;2023-07-13T11:41:14;97225.16;;;31.11
80537;BMP280;69867;47.074;15.404;2023-07-13T11:43:40;97222.81;;;31.08
80537;BMP280;69867;47.074;15.404;2023-07-13T11:46:16;97224.84;;;31.06
80537;BMP280;69867;47.074;15.404;2023-07-13T11:48:44;97219.13;;;31.17
80537;BMP280;69867;47.074;15.404;2023-07-13T11:51:21;97231.19;;;31.29
80537;BMP280;69867;47.074;15.404;2023-07-13T11:53:50;97227.34;;;31.32
80537;BMP280;69867;47.074;15.404;2023-07-13T11:56:16;97229.50;;;31.36
80537;BMP280;69867;47.074;15.404;2023-07-13T11:58:42;97223.69;;;31.56
80537;BMP280;69867;47.074;15.404;2023-07-13T12:01:36;97222.38;;;31.51
80537;BMP280;69867;47.074;15.404;2023-07-13T12:04:02;97213.94;;;31.24
80537;BMP280;69867;47.074;15.404;2023-07-13T12:06:33;97211.91;;;31.09
80537;BMP280;69867;47.074;15.404;2023-07-13T12:09:01;97208.09;;;30.96
80537;BMP280;69867;47.074;15.404;2023-07-13T12:11:27;97209.13;;;30.95
80537;BMP280;69867;47.074;15.404;2023-07-13T12:13:53;97208.81;;;30.81
80537;BMP280;69867;47.074;15.404;2023-07-13T12:16:27;97196.84;;;31.00
80537;BMP280;69867;47.074;15.404;2023-07-13T12:18:54;97197.31;;;31.20
80537;BMP280;69867;47.074;15.404;2023-07-13T12:21:23;97198.53;;;31.01
80537;BMP280;69867;47.074;15.404;2023-07-13T12:23:51;97204.50;;;30.72
80537;BMP280;69867;47.074;15.404;2023-07-13T12:26:17;97203.66;;;30.64
80537;BMP280;69867;47.074;15.404;2023-07-13T12:28:52;97207.84;;;30.50
80537;BMP280;69867;47.074;15.404;2023-07-13T12:34:19;97209.84;;;30.56
80537;BMP280;69867;47.074;15.404;2023-07-13T12:36:50;97184.56;;;30.50
80537;BMP280;69867;47.074;15.404;2023-07-13T12:42:25;97186.59;;;30.32
80537;BMP280;69867;47.074;15.404;2023-07-13T12:47:23;97217.06;;;30.07
80537;BMP280;69867;47.074;15.404;2023-07-13T12:49:54;97236.88;;;29.72
80537;BMP280;69867;47.074;15.404;2023-07-13T12:52:31;97248.25;;;29.66
80537;BMP280;69867;47.074;15.404;2023-07-13T12:55:03;97258.94;;;29.23
80537;BMP280;69867;47.074;15.404;2023-07-13T12:57:29;97266.78;;;29.17
80537;BMP280;69867;47.074;15.404;2023-07-13T12:59:54;97269.75;;;28.62
80537;BMP280;69867;47.074;15.404;2023-07-13T13:02:29;97271.22;;;28.39
80537;BMP280;69867;47.074;15.404;2023-07-13T13:04:56;97276.84;;;28.18
80537;BMP280;69867;47.074;15.404;2023-07-13T13:07:23;97281.03;;;27.85
80537;BMP280;69867;47.074;15.404;2023-07-13T13:09:48;97277.34;;;27.58
80537;BMP280;69867;47.074;15.404;2023-07-13T13:12:13;97280.91;;;27.49
80537;BMP280;69867;47.074;15.404;2023-07-13T13:14:39;97289.56;;;27.33
80537;BMP280;69867;47.074;15.404;2023-07-13T13:17:20;97302.06;;;27.33
80537;BMP280;69867;47.074;15.404;2023-07-13T13:19:46;97311.09;;;27.13
80537;BMP280;69867;47.074;15.404;2023-07-13T13:22:11;97316.75;;;27.00
80537;BMP280;69867;47.074;15.404;2023-07-13T13:24:37;97310.03;;;26.76
80537;BMP280;69867;47.074;15.404;2023-07-13T13:27:02;97312.88;;;26.65
80537;BMP280;69867;47.074;15.404;2023-07-13T13:29:28;97329.44;;;26.50
80537;BMP280;69867;47.074;15.404;2023-07-13T13:31:54;97333.09;;;26.39
80537;BMP280;69867;47.074;15.404;2023-07-13T13:34:21;97337.16;;;26.33
80537;BMP280;69867;47.074;15.404;2023-07-13T13:36:47;97334.44;;;26.14
80537;BMP280;69867;47.074;15.404;2023-07-13T13:39:20;97335.06;;;25.87
80537;BMP280;69867;47.074;15.404;2023-07-13T13:41:46;97336.28;;;25.73
80537;BMP280;69867;47.074;15.404;2023-07-13T13:44:14;97332.28;;;25.58
80537;BMP280;69867;47.074;15.404;2023-07-13T13:46:40;97330.72;;;25.46
80537;BMP280;69867;47.074;15.404;2023-07-13T13:49:12;97333.81;;;25.51
80537;BMP280;69867;47.074;15.404;2023-07-13T13:51:38;97327.34;;;25.44
80537;BMP280;69867;47.074;15.404;2023-07-13T13:54:05;97338.53;;;25.38
80537;BMP280;69867;47.074;15.404;2023-07-13T13:56:34;97334.53;;;25.23
80537;BMP280;69867;47.074;15.404;2023-07-13T13:59:00;97328.78;;;25.17
80537;BMP280;69867;47.074;15.404;2023-07-13T14:01:25;97328.19;;;25.14
80537;BMP280;69867;47.074;15.404;2023-07-13T14:03:51;97327.75;;;25.09
80537;BMP280;69867;47.074;15.404;2023-07-13T14:06:16;97319.28;;;25.25
80537;BMP280;69867;47.074;15.404;2023-07-13T14:08:42;97312.84;;;25.27
80537;BMP280;69867;47.074;15.404;2023-07-13T14:11:15;97312.84;;;25.27
80537;BMP280;69867;47.074;15.404;2023-07-13T14:14:01;97330.38;;;24.67
80537;BMP280;69867;47.074;15.404;2023-07-13T14:16:29;97346.75;;;24.51
80537;BMP280;69867;47.074;15.404;2023-07-13T14:18:55;97350.56;;;24.38
80537;BMP280;69867;47.074;15.404;2023-07-13T14:21:22;97358.91;;;24.33
80537;BMP280;69867;47.074;15.404;2023-07-13T14:23:48;97375.44;;;24.37
80537;BMP280;69867;47.074;15.404;2023-07-13T14:26:17;97373.38;;;24.40
80537;BMP280;69867;47.074;15.404;2023-07-13T14:28:45;97376.16;;;24.39
80537;BMP280;69867;47.074;15.404;2023-07-13T14:31:12;97373.25;;;24.42
80537;BMP280;69867;47.074;15.404;2023-07-13T14:33:38;97375.56;;;24.24
80537;BMP280;69867;47.074;15.404;2023-07-13T14:38:38;97381.50;;;24.16